createdAt,value
2023-02-02T00:01:28.155Z,59.80
2023-02-02T00:06:32.502Z,42.10
2023-02-02T00:11:37.025Z,48.53
2023-02-02T00:16:45.299Z,14.87
2023-02-02T00:21:48.785Z,19.52
2023-02-02T00:26:55.174Z,16.00
2023-02-02T00:31:58.982Z,23.80
2023-02-02T00:37:02.142Z,13.43
2023-02-02T00:42:06.870Z,11.07
2023-02-02T00:47:10.060Z,14.75
2023-02-02T00:52:13.215Z,28.63
2023-02-02T00:57:17.814Z,9.63
2023-02-02T01:02:20.950Z,11.37
2023-02-02T01:07:24.267Z,9.18
2023-02-02T01:12:28.906Z,18.20
2023-02-02T01:17:32.085Z,10.83
2023-02-02T01:22:35.526Z,8.02
2023-02-02T01:27:40.220Z,8.10
2023-02-02T01:32:43.404Z,14.73
2023-02-02T01:37:46.607Z,12.77
2023-02-02T01:42:51.199Z,7.47
2023-02-02T01:47:57.564Z,8.40
2023-02-02T01:53:02.610Z,5.82
2023-02-02T01:58:12.159Z,6.15
2023-02-02T02:03:18.578Z,6.05
2023-02-02T02:08:26.023Z,6.28
2023-02-02T02:13:46.770Z,5.72
2023-02-02T02:18:56.533Z,5.13
2023-02-02T02:24:44.615Z,5.38
2023-02-02T02:30:10.458Z,4.93
2023-02-02T02:35:24.876Z,4.93
2023-02-02T02:40:33.433Z,4.10
2023-02-02T02:45:38.519Z,3.80
2023-02-02T02:50:43.128Z,3.95
2023-02-02T02:55:53.163Z,3.30
2023-02-02T03:01:06.188Z,3.63
2023-02-02T03:06:16.538Z,3.78
2023-02-02T03:11:19.850Z,3.60
2023-02-02T03:16:23.156Z,3.20
2023-02-02T03:21:27.827Z,3.00
2023-02-02T03:26:31.277Z,3.40
2023-02-02T03:31:34.812Z,3.13
2023-02-02T03:36:39.449Z,3.33
2023-02-02T03:41:42.739Z,3.00
2023-02-02T03:46:46.083Z,3.05
2023-02-02T03:51:50.771Z,2.67
2023-02-02T03:56:54.075Z,2.90
2023-02-02T04:01:57.299Z,2.75
2023-02-02T04:07:02.577Z,2.45
2023-02-02T04:12:06.084Z,2.35
2023-02-02T04:17:09.349Z,2.10
2023-02-02T04:22:14.066Z,1.92
2023-02-02T04:27:17.333Z,1.93
2023-02-02T04:32:20.774Z,1.83
2023-02-02T04:37:25.474Z,1.95
2023-02-02T04:42:28.715Z,1.77
2023-02-02T04:47:32.010Z,1.90
2023-02-02T04:52:36.688Z,1.80
2023-02-02T04:57:39.927Z,1.90
2023-02-02T05:02:43.703Z,2.30
2023-02-02T05:07:48.326Z,2.50
2023-02-02T05:12:53.856Z,3.13
2023-02-02T05:17:57.102Z,2.47
2023-02-02T05:23:01.764Z,2.45
2023-02-02T05:28:05.059Z,2.00
2023-02-02T05:33:08.388Z,1.95
2023-02-02T05:38:13.137Z,1.77
2023-02-02T05:43:16.327Z,2.10
2023-02-02T05:48:19.618Z,1.85
2023-02-02T05:53:24.485Z,1.90
2023-02-02T05:58:28.264Z,2.17
2023-02-02T06:03:31.672Z,1.90
2023-02-02T06:08:37.430Z,1.85
2023-02-02T06:13:40.751Z,2.10
2023-02-02T06:18:44.063Z,1.90
2023-02-02T06:23:49.942Z,1.40
2023-02-02T06:28:55.052Z,1.80
2023-02-02T06:33:59.871Z,1.85
2023-02-02T06:39:06.089Z,1.63
2023-02-02T06:44:09.353Z,1.60
2023-02-02T06:49:12.618Z,1.83
2023-02-02T06:54:17.487Z,2.00
2023-02-02T06:59:20.940Z,2.05
2023-02-02T07:04:24.202Z,2.00
2023-02-02T07:09:28.845Z,1.85
2023-02-02T07:14:32.016Z,2.33
2023-02-02T07:19:35.268Z,1.73
2023-02-02T07:24:39.941Z,1.70
2023-02-02T07:29:43.144Z,2.10
2023-02-02T07:34:46.377Z,1.98
2023-02-02T07:39:51.030Z,1.48
2023-02-02T07:44:54.256Z,2.20
2023-02-02T07:49:57.533Z,1.88
2023-02-02T07:55:14.030Z,1.65
2023-02-02T08:00:18.704Z,1.70
2023-02-02T08:05:23.127Z,1.45
2023-02-02T08:10:28.111Z,1.70
2023-02-02T08:15:31.309Z,1.90
2023-02-02T08:20:34.632Z,2.17
2023-02-02T08:25:39.322Z,1.80
2023-02-02T08:30:42.722Z,1.60
2023-02-02T08:35:47.419Z,1.95
2023-02-02T08:40:52.778Z,1.77
2023-02-02T08:51:09.700Z,2.60
2023-02-02T08:56:16.336Z,2.28
2023-02-02T09:01:21.605Z,2.10
2023-02-02T09:11:32.209Z,2.40
2023-02-02T09:16:36.498Z,1.93
2023-02-02T09:21:40.757Z,2.10
2023-02-02T09:26:46.544Z,3.28
2023-02-02T09:31:49.961Z,2.28
2023-02-02T09:36:54.534Z,2.08
2023-02-02T09:42:40.962Z,2.17
2023-02-02T09:48:11.281Z,3.58
2023-02-02T09:53:22.231Z,2.83
2023-02-02T09:58:32.464Z,2.33
2023-02-02T10:03:42.056Z,2.38
2023-02-02T10:08:50.283Z,2.20
2023-02-02T10:13:58.558Z,2.30
2023-02-02T10:19:05.909Z,3.30
2023-02-02T10:24:17.705Z,4.82
2023-02-02T10:29:48.065Z,2.63
2023-02-02T10:35:18.771Z,2.63
2023-02-02T10:40:38.449Z,2.08
2023-02-02T10:45:45.396Z,2.40
2023-02-02T10:50:51.300Z,3.28
2023-02-02T10:56:01.024Z,2.25
2023-02-02T11:01:08.057Z,2.20
2023-02-02T11:06:32.317Z,1.70
2023-02-02T11:11:40.670Z,2.20
2023-02-02T11:16:46.532Z,2.10
2023-02-02T11:21:51.697Z,2.15
2023-02-02T11:32:18.983Z,2.13
2023-02-02T11:37:23.747Z,2.45
2023-02-02T11:42:27.386Z,2.20
2023-02-02T11:47:34.144Z,2.40
2023-02-02T11:52:40.480Z,2.42
2023-02-02T11:58:19.782Z,3.70
2023-02-02T12:03:32.052Z,4.15
2023-02-02T12:08:35.193Z,2.80
2023-02-02T12:14:01.877Z,3.05
2023-02-02T12:19:46.612Z,3.00
2023-02-02T12:24:56.855Z,3.00
2023-02-02T12:30:13.798Z,2.92
2023-02-02T12:35:47.598Z,2.97
2023-02-02T12:41:11.192Z,4.22
2023-02-02T12:46:28.054Z,3.65
2023-02-02T12:51:54.419Z,3.13
2023-02-02T12:57:08.273Z,3.28
2023-02-02T13:02:25.279Z,3.83
2023-02-02T13:07:36.682Z,3.30
2023-02-02T13:12:44.839Z,3.10
2023-02-02T13:17:52.464Z,2.83
2023-02-02T13:23:00.440Z,3.05
2023-02-02T13:28:07.468Z,2.83
2023-02-02T13:33:18.013Z,3.47
2023-02-02T13:38:24.598Z,3.35
2023-02-02T13:43:39.976Z,3.80
2023-02-02T13:48:54.979Z,3.40
2023-02-02T13:54:23.033Z,3.00
2023-02-02T13:59:49.286Z,3.15
2023-02-02T14:04:57.982Z,3.03
2023-02-02T14:10:04.616Z,2.95
2023-02-02T14:15:13.470Z,3.40
2023-02-02T14:20:41.758Z,3.17
2023-02-02T14:26:06.606Z,3.58
2023-02-02T14:36:31.877Z,3.70
2023-02-02T14:42:23.569Z,3.72
2023-02-02T14:47:55.312Z,3.50
2023-02-02T14:53:02.860Z,3.28
2023-02-02T14:58:08.960Z,3.10
2023-02-02T15:03:36.088Z,3.15
2023-02-02T15:08:39.329Z,3.85
2023-02-02T15:13:46.875Z,3.72
2023-02-02T15:19:00.928Z,3.85
2023-02-02T15:24:06.308Z,3.30
2023-02-02T15:29:20.647Z,3.60
2023-02-02T15:34:28.571Z,3.53
2023-02-02T15:39:35.013Z,4.32
2023-02-02T15:44:40.034Z,3.95
2023-02-02T15:49:43.559Z,3.30
2023-02-02T15:54:54.872Z,3.70
2023-02-02T16:00:00.703Z,3.58
2023-02-02T16:05:04.044Z,3.53
2023-02-02T16:10:09.336Z,3.72
2023-02-02T16:15:22.127Z,3.85
2023-02-02T16:20:25.481Z,4.43
2023-02-02T16:25:32.011Z,3.53
2023-02-02T16:30:39.915Z,4.78
2023-02-02T16:35:43.173Z,4.00
2023-02-02T16:40:46.421Z,4.07
2023-02-02T16:45:53.220Z,4.50
2023-02-02T16:51:10.106Z,5.07
2023-02-02T16:56:25.103Z,4.80
2023-02-02T17:01:39.059Z,4.60
2023-02-02T17:06:52.225Z,20.48
2023-02-02T17:12:01.384Z,7.20
2023-02-02T17:17:07.683Z,38.78
2023-02-02T17:22:11.864Z,20.67
2023-02-02T17:27:18.277Z,10.83
2023-02-02T17:32:23.999Z,7.15
2023-02-02T17:37:27.258Z,10.60
2023-02-02T17:42:31.352Z,8.65
2023-02-02T17:47:37.757Z,6.37
2023-02-02T17:52:41.468Z,9.18
2023-02-02T17:57:47.110Z,7.43
2023-02-02T18:02:56.892Z,5.95
2023-02-02T18:08:00.456Z,6.45
2023-02-02T18:13:03.835Z,7.60
2023-02-02T18:18:08.708Z,6.32
2023-02-02T18:23:12.549Z,5.68
2023-02-02T18:28:17.986Z,7.15
2023-02-02T18:33:23.663Z,6.00
2023-02-02T18:38:26.925Z,6.22
2023-02-02T18:43:30.183Z,6.65
2023-02-02T18:48:34.743Z,6.50
2023-02-02T18:53:38.059Z,6.90
2023-02-02T18:58:42.000Z,8.02
2023-02-02T19:03:50.023Z,7.43
2023-02-02T19:08:53.759Z,8.13
2023-02-02T19:13:57.572Z,7.95
2023-02-02T19:19:09.232Z,8.15
2023-02-02T19:24:13.921Z,11.18
2023-02-02T19:29:20.137Z,12.57
2023-02-02T19:34:24.755Z,13.20
2023-02-02T19:39:31.963Z,14.02
2023-02-02T19:44:36.032Z,11.50
2023-02-02T19:49:40.594Z,11.05
2023-02-02T19:54:45.202Z,12.07
2023-02-02T19:59:51.132Z,10.70
2023-02-02T20:05:03.757Z,11.68
2023-02-02T20:10:19.040Z,10.23
2023-02-02T20:20:35.836Z,11.35
2023-02-02T20:25:38.984Z,9.50
2023-02-02T20:30:42.460Z,10.85
2023-02-02T20:35:47.014Z,10.10
2023-02-02T20:40:52.205Z,11.50
2023-02-02T20:45:55.445Z,10.68
2023-02-02T20:51:00.146Z,10.15
2023-02-02T20:56:03.678Z,9.27
2023-02-02T21:01:07.033Z,8.88
2023-02-02T21:06:11.585Z,10.57
2023-02-02T21:11:14.899Z,12.67
2023-02-02T21:16:18.322Z,11.07
2023-02-02T21:21:23.067Z,8.65
2023-02-02T21:26:30.827Z,8.70
2023-02-02T21:31:35.874Z,10.32
2023-02-02T21:36:43.973Z,10.43
2023-02-02T21:41:47.261Z,10.23
2023-02-02T21:46:52.654Z,9.95
2023-02-02T21:52:00.419Z,10.07
2023-02-02T21:57:06.409Z,9.95
2023-02-02T22:02:30.323Z,9.35
2023-02-02T22:07:34.945Z,10.32
2023-02-02T22:12:38.223Z,10.70
2023-02-02T22:17:43.731Z,10.57
2023-02-02T22:22:51.180Z,10.70
2023-02-02T22:27:57.725Z,10.95
2023-02-02T22:33:01.101Z,10.90
2023-02-02T22:38:06.927Z,11.48
2023-02-02T22:43:10.317Z,11.38
2023-02-02T22:48:14.521Z,12.38
2023-02-02T22:53:19.159Z,12.13
2023-02-02T22:58:22.373Z,12.00
2023-02-02T23:03:25.769Z,12.60
2023-02-02T23:08:30.436Z,12.18
2023-02-02T23:13:33.666Z,12.73
2023-02-02T23:18:36.934Z,12.02
2023-02-02T23:23:41.587Z,15.43
2023-02-02T23:28:44.783Z,13.30
2023-02-02T23:33:48.035Z,12.75
2023-02-02T23:38:52.638Z,13.48
2023-02-02T23:43:56.005Z,12.07
2023-02-02T23:49:00.807Z,12.50
2023-02-02T23:54:05.844Z,12.25
2023-02-02T23:59:09.336Z,12.40
